createdAt,value
2023-01-08T00:02:11.853Z,75.82
2023-01-08T00:12:11.820Z,75.93
2023-01-08T00:22:11.962Z,76.06
2023-01-08T00:32:11.872Z,76.25
2023-01-08T00:42:11.822Z,76.43
2023-01-08T00:52:11.912Z,76.52
2023-01-08T01:02:12.017Z,76.71
2023-01-08T01:12:11.945Z,76.83
2023-01-08T01:22:11.977Z,76.87
2023-01-08T01:32:12.098Z,76.93
2023-01-08T01:42:13.959Z,77.00
2023-01-08T01:52:13.979Z,77.08
2023-01-08T02:02:14.182Z,77.16
2023-01-08T02:12:17.051Z,77.47
2023-01-08T02:22:17.113Z,78.00
2023-01-08T02:32:17.039Z,78.37
2023-01-08T02:42:17.017Z,78.56
2023-01-08T02:52:17.046Z,78.83
2023-01-08T03:02:17.382Z,79.05
2023-01-08T03:12:18.141Z,79.27
2023-01-08T03:22:18.181Z,79.49
2023-01-08T03:32:18.055Z,79.68
2023-01-08T03:42:18.182Z,79.86
2023-01-08T03:52:18.144Z,80.06
2023-01-08T04:02:18.278Z,80.44
2023-01-08T04:12:18.149Z,80.75
2023-01-08T04:22:18.155Z,80.98
2023-01-08T04:32:18.072Z,81.15
2023-01-08T04:42:18.109Z,81.30
2023-01-08T04:52:18.162Z,81.45
2023-01-08T05:02:18.352Z,81.61
2023-01-08T05:12:18.171Z,81.72
2023-01-08T05:22:18.270Z,81.78
2023-01-08T05:32:18.187Z,81.93
2023-01-08T05:42:18.195Z,81.90
2023-01-08T05:52:18.275Z,82.10
2023-01-08T06:02:18.211Z,82.29
2023-01-08T06:12:18.257Z,82.41
2023-01-08T06:22:18.328Z,82.44
2023-01-08T06:32:18.269Z,82.46
2023-01-08T06:42:18.268Z,82.41
2023-01-08T06:52:18.297Z,82.39
2023-01-08T07:02:29.304Z,82.44
2023-01-08T07:12:29.391Z,82.92
2023-01-08T07:22:29.367Z,83.14
2023-01-08T07:32:29.355Z,83.32
2023-01-08T07:42:29.343Z,83.34
2023-01-08T07:52:29.398Z,83.29
2023-01-08T08:02:29.659Z,83.34
2023-01-08T08:12:30.361Z,83.32
2023-01-08T08:22:30.435Z,83.23
2023-01-08T08:32:30.444Z,83.17
2023-01-08T08:42:30.408Z,83.07
2023-01-08T08:52:30.519Z,82.67
2023-01-08T09:02:31.461Z,82.65
2023-01-08T09:12:31.659Z,82.59
2023-01-08T09:22:31.544Z,82.47
2023-01-08T09:32:33.582Z,82.26
2023-01-08T09:42:33.502Z,82.14
2023-01-08T09:52:33.615Z,81.32
2023-01-08T10:02:35.223Z,80.36
2023-01-08T10:12:35.552Z,80.46
2023-01-08T10:22:36.233Z,80.51
2023-01-08T10:32:36.551Z,80.28
2023-01-08T10:42:36.676Z,79.00
2023-01-08T10:52:36.646Z,78.98
2023-01-08T11:02:39.934Z,77.51
2023-01-08T11:12:40.823Z,77.49
2023-01-08T11:22:40.772Z,76.85
2023-01-08T11:32:40.615Z,75.75
2023-01-08T11:42:40.742Z,75.57
2023-01-08T11:52:41.016Z,74.79
2023-01-08T12:02:41.049Z,72.99
2023-01-08T12:12:40.717Z,72.73
2023-01-08T12:22:40.784Z,72.87
2023-01-08T12:32:40.716Z,71.84
2023-01-08T12:42:42.701Z,71.02
2023-01-08T12:52:42.765Z,70.43
2023-01-08T13:02:42.904Z,70.36
2023-01-08T13:12:43.188Z,70.16
2023-01-08T13:22:43.967Z,69.92
2023-01-08T13:32:45.163Z,69.83
2023-01-08T13:42:44.778Z,69.91
2023-01-08T13:52:45.022Z,69.70
2023-01-08T14:02:46.823Z,70.30
2023-01-08T14:12:46.884Z,68.50
2023-01-08T14:22:46.930Z,68.65
2023-01-08T14:32:46.885Z,68.82
2023-01-08T14:42:48.892Z,68.79
2023-01-08T14:52:48.974Z,69.21
2023-01-08T15:02:49.022Z,69.60
2023-01-08T15:12:48.917Z,70.07
2023-01-08T15:22:49.486Z,70.58
2023-01-08T15:32:49.938Z,70.94
2023-01-08T15:43:08.527Z,71.29
2023-01-08T15:53:09.777Z,71.64
2023-01-08T16:03:10.313Z,71.70
2023-01-08T16:13:12.134Z,71.70
2023-01-08T16:23:15.939Z,71.72
2023-01-08T16:33:16.092Z,72.07
2023-01-08T16:43:16.155Z,72.42
2023-01-08T16:53:16.942Z,72.75
2023-01-08T17:03:17.049Z,72.84
2023-01-08T17:13:17.081Z,73.11
2023-01-08T17:23:17.140Z,73.43
2023-01-08T17:33:17.115Z,73.92
2023-01-08T17:43:17.096Z,74.07
2023-01-08T17:53:17.225Z,74.64
2023-01-08T18:03:17.125Z,75.02
2023-01-08T18:13:17.187Z,75.12
2023-01-08T18:23:17.943Z,75.23
2023-01-08T18:33:18.160Z,75.43
2023-01-08T18:43:18.178Z,75.56
2023-01-08T18:53:18.255Z,75.67
2023-01-08T19:03:18.208Z,75.55
2023-01-08T19:13:18.574Z,75.48
2023-01-08T19:23:18.284Z,75.43
2023-01-08T19:33:18.248Z,75.31
2023-01-08T19:43:36.533Z,75.32
2023-01-08T19:53:36.349Z,75.31
2023-01-08T20:03:36.272Z,75.45
2023-01-08T20:13:36.312Z,75.75
2023-01-08T20:23:36.375Z,75.87
2023-01-08T20:33:39.454Z,76.06
2023-01-08T20:43:39.343Z,76.10
2023-01-08T20:53:39.526Z,76.14
2023-01-08T21:03:39.375Z,76.16
2023-01-08T21:13:39.584Z,76.15
2023-01-08T21:23:39.436Z,76.09
2023-01-08T21:33:39.417Z,76.08
2023-01-08T21:44:10.918Z,76.08
2023-01-08T21:54:11.480Z,76.06
2023-01-08T22:04:11.586Z,76.10
2023-01-08T22:14:11.469Z,76.11
2023-01-08T22:24:11.611Z,76.18
2023-01-08T22:34:13.392Z,76.18
2023-01-08T22:44:13.497Z,76.53
2023-01-08T22:54:13.552Z,77.35
2023-01-08T23:04:14.769Z,77.96
2023-01-08T23:14:14.880Z,78.58
2023-01-08T23:24:15.596Z,79.39
2023-01-08T23:34:15.535Z,79.96
2023-01-08T23:44:15.729Z,80.57
2023-01-08T23:54:16.749Z,81.19
